Time;durP1;ratioP1;P1;durP2;ratioP2;P2;SDS_P1;SDS_P2;PMS_P1;PMS_P2;Temp;Humidity;BMP_temperature;BMP_pressure;BME280_temperature;BME280_humidity;BME280_pressure;Samples;Min_cycle;Max_cycle;Signal;HPM_P1;HPM_P2
2022/06/14 00:01:11;;;;;;;5.33;4.40;;;16.90;96.50;;;;;;5014434;28;20538;-55
2022/06/14 00:03:40;;;;;;;7.10;4.30;;;16.80;96.80;;;;;;5014453;28;20450;-55
2022/06/14 00:06:10;;;;;;;5.23;4.47;;;16.90;96.90;;;;;;5014036;28;20532;-55
2022/06/14 00:08:39;;;;;;;6.00;4.57;;;17.00;97.70;;;;;;5014194;28;20993;-55
2022/06/14 00:11:09;;;;;;;6.03;4.23;;;16.90;97.60;;;;;;5013910;28;20972;-54
2022/06/14 00:13:36;;;;;;;6.57;4.90;;;16.70;97.80;;;;;;5013966;28;20439;-56
2022/06/14 00:16:04;;;;;;;8.37;4.17;;;16.70;98.20;;;;;;5013855;28;20490;-56
2022/06/14 00:18:31;;;;;;;5.30;4.47;;;16.70;98.00;;;;;;5014226;28;20451;-55
2022/06/14 00:20:59;;;;;;;6.90;4.83;;;16.70;97.90;;;;;;5013841;28;20493;-54
2022/06/14 00:23:26;;;;;;;7.70;4.80;;;16.70;97.80;;;;;;5014170;28;20457;-54
2022/06/14 00:25:57;;;;;;;8.40;5.13;;;16.70;97.70;;;;;;5013551;28;20493;-54
2022/06/14 00:28:26;;;;;;;7.73;5.43;;;16.70;98.40;;;;;;5013727;28;20498;-55
2022/06/14 00:30:58;;;;;;;8.40;5.50;;;16.60;98.30;;;;;;5013852;28;20466;-54
2022/06/14 00:33:25;;;;;;;7.43;5.00;;;16.70;98.20;;;;;;5013767;28;20522;-55
2022/06/14 00:35:59;;;;;;;9.03;5.40;;;16.70;98.20;;;;;;5013601;28;20449;-55
2022/06/14 00:38:27;;;;;;;10.63;5.37;;;16.70;98.50;;;;;;5013767;28;20459;-55
2022/06/14 00:40:58;;;;;;;7.90;5.37;;;16.70;98.30;;;;;;5013850;28;20483;-55
2022/06/14 00:43:27;;;;;;;5.87;5.13;;;16.60;98.60;;;;;;5013744;28;20455;-55
2022/06/14 00:46:22;;;;;;;8.10;5.27;;;16.70;99.00;;;;;;5013786;28;20493;-55
2022/06/14 00:48:55;;;;;;;10.90;5.50;;;16.70;99.70;;;;;;5013740;28;21010;-55
2022/06/14 00:51:27;;;;;;;6.87;4.17;;;16.50;99.50;;;;;;5013758;28;20760;-55
2022/06/14 00:54:01;;;;;;;6.70;5.87;;;16.40;99.90;;;;;;5013611;28;20427;-55
2022/06/14 00:56:36;;;;;;;7.60;5.40;;;16.30;99.90;;;;;;5013499;28;20470;-55
2022/06/14 00:59:08;;;;;;;8.10;5.50;;;16.10;99.90;;;;;;5013488;28;20542;-55
2022/06/14 01:01:39;;;;;;;8.00;4.77;;;16.10;99.90;;;;;;5013314;28;20518;-55
2022/06/14 01:04:10;;;;;;;5.60;5.10;;;16.10;99.90;;;;;;5013744;28;20522;-55
2022/06/14 01:07:04;;;;;;;4.83;3.97;;;16.10;99.90;;;;;;5013343;28;20455;-55
2022/06/14 01:10:17;;;;;;;7.87;5.53;;;16.10;99.90;;;;;;5013290;28;20471;-55
2022/06/14 01:13:08;;;;;;;9.00;4.83;;;16.20;99.90;;;;;;5012404;28;20478;-55
2022/06/14 01:15:50;;;;;;;4.80;4.40;;;16.20;99.90;;;;;;5013157;28;20423;-55
2022/06/14 01:18:18;;;;;;;6.30;4.93;;;16.20;99.90;;;;;;5013166;28;20427;-55
2022/06/14 01:21:20;;;;;;;13.10;5.33;;;16.20;99.90;;;;;;5013156;28;20467;-55
2022/06/14 01:24:09;;;;;;;8.20;4.93;;;16.20;99.90;;;;;;5013444;28;20446;-55
2022/06/14 01:26:48;;;;;;;7.57;5.93;;;16.00;99.90;;;;;;5025889;28;20536;-56
2022/06/14 01:29:42;;;;;;;7.37;4.80;;;16.00;99.90;;;;;;5033105;28;20611;-56
2022/06/14 01:32:12;;;;;;;7.57;4.90;;;15.90;99.90;;;;;;5032747;28;20436;-55
2022/06/14 01:34:46;;;;;;;7.90;5.00;;;16.00;99.90;;;;;;5033105;28;20443;-56
2022/06/14 01:37:14;;;;;;;6.27;5.33;;;16.00;99.90;;;;;;5032660;28;20442;-55
2022/06/14 01:39:42;;;;;;;10.83;5.70;;;15.90;99.90;;;;;;5033313;28;20454;-55
2022/06/14 01:42:19;;;;;;;10.70;5.60;;;15.80;99.90;;;;;;5035685;28;20446;-56
2022/06/14 01:44:54;;;;;;;11.40;5.20;;;15.90;99.90;;;;;;5036501;28;20468;-56
2022/06/14 01:47:28;;;;;;;6.27;5.27;;;16.00;99.90;;;;;;5036581;28;20506;-56
2022/06/14 01:52:59;;;;;;;7.37;5.73;;;16.00;99.90;;;;;;5036695;28;20480;-56
2022/06/14 01:55:38;;;;;;;6.57;5.97;;;15.90;99.90;;;;;;5036407;28;20441;-56
2022/06/14 01:58:17;;;;;;;5.30;4.80;;;15.90;99.90;;;;;;5036357;28;20410;-56
2022/06/14 02:00:54;;;;;;;10.50;5.83;;;15.90;99.90;;;;;;5036305;28;20976;-56
2022/06/14 02:06:20;;;;;;;8.00;6.07;;;15.60;99.90;;;;;;5036124;28;20461;-55
2022/06/14 02:08:53;;;;;;;12.03;6.17;;;15.60;99.90;;;;;;5036033;28;20489;-55
2022/06/14 02:11:28;;;;;;;5.83;5.20;;;15.70;99.90;;;;;;5036429;28;20431;-55
2022/06/14 02:13:59;;;;;;;7.27;4.93;;;15.80;99.90;;;;;;5035712;28;20478;-56
2022/06/14 02:16:32;;;;;;;6.53;5.43;;;15.90;99.90;;;;;;5036102;28;20521;-56
2022/06/14 02:19:06;;;;;;;7.60;5.10;;;15.90;99.90;;;;;;5036105;28;20816;-55
2022/06/14 02:21:36;;;;;;;8.03;5.30;;;15.90;99.90;;;;;;5036276;28;20458;-54
2022/06/14 02:24:10;;;;;;;9.57;5.43;;;15.70;99.90;;;;;;5035842;28;20411;-54
2022/06/14 02:26:42;;;;;;;8.03;6.00;;;15.40;99.90;;;;;;5035837;28;20474;-55
2022/06/14 02:29:17;;;;;;;6.03;5.50;;;15.40;99.90;;;;;;5036032;28;20892;-55
2022/06/14 02:31:48;;;;;;;9.93;5.17;;;15.50;99.90;;;;;;5035867;28;20440;-55
2022/06/14 02:34:20;;;;;;;5.60;5.07;;;15.60;99.90;;;;;;5035696;28;20789;-55
2022/06/14 02:36:52;;;;;;;7.03;6.30;;;15.60;99.90;;;;;;5035986;28;20777;-55
2022/06/14 02:39:22;;;;;;;6.40;5.67;;;15.60;99.90;;;;;;5035918;28;20474;-55
2022/06/14 02:42:11;;;;;;;7.00;5.17;;;15.60;99.90;;;;;;5035774;28;20441;-55
2022/06/14 02:44:46;;;;;;;8.30;5.60;;;15.70;99.90;;;;;;5035351;28;20440;-55
2022/06/14 02:47:21;;;;;;;15.40;6.60;;;15.70;99.90;;;;;;5035964;28;20497;-55
2022/06/14 02:49:55;;;;;;;9.50;6.10;;;15.80;99.90;;;;;;5035260;28;20553;-55
2022/06/14 02:52:30;;;;;;;8.33;6.50;;;15.70;99.90;;;;;;5035378;28;20473;-55
2022/06/14 02:55:00;;;;;;;8.00;6.30;;;15.60;99.90;;;;;;5035317;28;20528;-54
2022/06/14 02:57:37;;;;;;;6.80;6.10;;;15.50;99.90;;;;;;5015449;28;20440;-55
2022/06/14 03:00:09;;;;;;;8.37;5.57;;;15.20;99.90;;;;;;5015401;28;20977;-55
2022/06/14 03:02:43;;;;;;;7.13;5.70;;;15.20;99.90;;;;;;5015633;28;20910;-55
2022/06/14 03:05:16;;;;;;;7.03;5.97;;;15.00;99.90;;;;;;5015554;28;20494;-55
2022/06/14 03:07:49;;;;;;;7.80;5.73;;;15.10;99.90;;;;;;5015551;28;20428;-55
2022/06/14 03:10:17;;;;;;;7.10;5.77;;;15.20;99.90;;;;;;5015254;28;20503;-55
2022/06/14 03:12:55;;;;;;;9.07;6.63;;;15.20;99.90;;;;;;5015132;28;20554;-58
2022/06/14 03:15:31;;;;;;;11.97;7.00;;;15.20;99.90;;;;;;5015445;28;20517;-55
2022/06/14 03:18:09;;;;;;;9.30;5.33;;;15.10;99.90;;;;;;5015422;28;20431;-55
2022/06/14 03:20:46;;;;;;;10.73;7.03;;;15.00;99.90;;;;;;5014991;28;20471;-55
2022/06/14 03:23:19;;;;;;;9.40;6.37;;;15.10;99.90;;;;;;5014845;28;20906;-54
2022/06/14 03:25:51;;;;;;;9.40;6.13;;;15.10;99.90;;;;;;5021412;28;20516;-55
2022/06/14 03:28:25;;;;;;;6.63;6.03;;;15.20;99.90;;;;;;5034975;28;20437;-55
2022/06/14 03:30:59;;;;;;;9.63;6.20;;;15.20;99.90;;;;;;5034702;28;20521;-55
2022/06/14 03:33:35;;;;;;;11.47;6.03;;;15.30;99.90;;;;;;5034875;28;20438;-55
2022/06/14 03:36:03;;;;;;;7.10;5.80;;;15.30;99.90;;;;;;5034438;28;20431;-55
2022/06/14 03:38:38;;;;;;;8.97;6.20;;;15.20;99.90;;;;;;5034790;28;20880;-55
2022/06/14 03:41:07;;;;;;;12.73;6.30;;;15.10;99.90;;;;;;5034699;28;20525;-55
2022/06/14 03:43:37;;;;;;;8.70;6.40;;;15.20;99.90;;;;;;5034592;28;20481;-55
2022/06/14 03:46:10;;;;;;;6.17;5.30;;;15.20;99.90;;;;;;5034423;28;20558;-55
2022/06/14 03:48:40;;;;;;;6.50;5.90;;;14.90;99.90;;;;;;5034394;28;20434;-55
2022/06/14 03:51:12;;;;;;;7.23;6.27;;;14.80;99.90;;;;;;5034430;28;20437;-55
2022/06/14 03:53:52;;;;;;;7.43;6.13;;;15.00;99.90;;;;;;5034184;28;20893;-55
2022/06/14 03:56:31;;;;;;;8.07;5.70;;;14.90;99.90;;;;;;5034135;28;20943;-55
2022/06/14 03:59:25;;;;;;;11.93;6.57;;;14.90;99.90;;;;;;5034090;28;20945;-55
2022/06/14 04:01:58;;;;;;;8.10;5.67;;;14.80;99.90;;;;;;5034267;28;20435;-55
2022/06/14 04:04:46;;;;;;;9.20;5.30;;;14.70;99.90;;;;;;5033935;28;20521;-55
2022/06/14 04:07:22;;;;;;;10.03;8.40;;;14.70;99.90;;;;;;5033870;28;20473;-55
2022/06/14 04:09:57;;;;;;;8.70;6.90;;;14.70;99.90;;;;;;5034240;28;20482;-54
2022/06/14 04:12:34;;;;;;;8.70;6.63;;;14.90;99.90;;;;;;5033888;28;20464;-54
2022/06/14 04:15:20;;;;;;;10.83;6.30;;;15.00;99.90;;;;;;5034067;28;20509;-55
2022/06/14 04:17:54;;;;;;;7.80;6.30;;;15.10;99.90;;;;;;5034055;28;20937;-55
2022/06/14 04:20:29;;;;;;;12.03;5.67;;;15.10;99.90;;;;;;5033945;28;20471;-55
2022/06/14 04:23:10;;;;;;;7.77;5.67;;;15.20;99.90;;;;;;5033534;28;20919;-55
2022/06/14 04:25:43;;;;;;;6.70;5.90;;;15.20;99.90;;;;;;5033633;28;20474;-55
2022/06/14 04:28:20;;;;;;;6.90;5.50;;;15.30;99.90;;;;;;5033716;28;20462;-56
2022/06/14 04:30:55;;;;;;;8.90;6.30;;;15.30;99.90;;;;;;5033586;28;20549;-55
2022/06/14 04:33:29;;;;;;;6.70;5.70;;;15.40;99.90;;;;;;5033486;28;21023;-56
2022/06/14 04:36:01;;;;;;;12.10;6.87;;;15.40;99.90;;;;;;5033822;28;20427;-56
2022/06/14 04:38:33;;;;;;;8.40;6.20;;;15.30;99.90;;;;;;5033609;28;20858;-55
2022/06/14 04:41:05;;;;;;;6.70;6.00;;;15.30;99.90;;;;;;5033481;28;20459;-56
2022/06/14 04:43:39;;;;;;;7.83;5.93;;;15.30;99.90;;;;;;5033420;28;20841;-56
2022/06/14 04:46:13;;;;;;;16.23;6.70;;;15.30;99.90;;;;;;5033274;28;20466;-56
2022/06/14 04:48:46;;;;;;;8.37;6.73;;;15.40;99.90;;;;;;5033418;28;20487;-56
2022/06/14 04:51:19;;;;;;;8.70;7.10;;;15.50;99.90;;;;;;5033233;28;20426;-56
2022/06/14 04:53:56;;;;;;;10.70;7.07;;;15.50;99.90;;;;;;5033270;28;20430;-56
2022/06/14 04:56:28;;;;;;;13.53;7.77;;;15.60;99.90;;;;;;5033277;28;20525;-55
2022/06/14 04:59:01;;;;;;;10.17;7.30;;;15.60;99.90;;;;;;5033458;28;20463;-55
2022/06/14 05:01:36;;;;;;;12.30;7.60;;;15.60;99.90;;;;;;5032982;28;20894;-57
2022/06/14 05:04:09;;;;;;;9.93;8.07;;;15.60;99.90;;;;;;5033160;28;20521;-55
2022/06/14 05:06:40;;;;;;;14.87;7.70;;;15.60;99.90;;;;;;5032987;28;20561;-55
2022/06/14 05:09:12;;;;;;;12.13;8.00;;;15.60;99.90;;;;;;5033675;28;20564;-55
2022/06/14 05:11:44;;;;;;;8.77;6.63;;;15.70;99.90;;;;;;5033046;28;20427;-55
2022/06/14 05:14:17;;;;;;;13.70;7.60;;;15.80;99.90;;;;;;5032638;28;20489;-55
2022/06/14 05:16:48;;;;;;;8.30;7.47;;;15.80;99.90;;;;;;5035141;28;20905;-55
2022/06/14 05:19:22;;;;;;;11.53;8.60;;;15.80;99.90;;;;;;5036845;28;20469;-55
2022/06/14 05:21:55;;;;;;;9.87;6.57;;;15.80;99.90;;;;;;5037221;28;20434;-55
2022/06/14 05:24:24;;;;;;;12.33;7.87;;;15.90;99.90;;;;;;5036817;28;20909;-55
2022/06/14 05:27:07;;;;;;;8.50;7.60;;;15.90;99.90;;;;;;5021953;28;20529;-56
2022/06/14 05:29:40;;;;;;;10.87;7.70;;;15.90;99.90;;;;;;5017349;28;20525;-55
2022/06/14 05:32:21;;;;;;;10.70;8.40;;;15.90;99.90;;;;;;5017041;28;20439;-55
2022/06/14 05:35:00;;;;;;;11.70;9.00;;;16.10;99.90;;;;;;5017256;28;20494;-55
2022/06/14 05:37:35;;;;;;;10.23;8.00;;;16.10;99.90;;;;;;5017157;28;20455;-55
2022/06/14 05:40:12;;;;;;;17.87;10.00;;;16.10;99.90;;;;;;5016637;28;20554;-55
2022/06/14 05:42:45;;;;;;;10.90;7.33;;;16.30;99.90;;;;;;5016740;28;20427;-55
2022/06/14 05:45:17;;;;;;;9.23;7.93;;;16.30;99.90;;;;;;5016847;28;20432;-56
2022/06/14 05:47:50;;;;;;;13.57;8.73;;;16.30;99.90;;;;;;5016614;28;20561;-55
2022/06/14 05:50:22;;;;;;;11.20;8.33;;;16.50;99.90;;;;;;5016648;28;20553;-55
2022/06/14 05:52:55;;;;;;;11.63;7.60;;;16.60;99.90;;;;;;5016640;28;20457;-55
2022/06/14 05:55:26;;;;;;;16.23;9.20;;;16.60;99.90;;;;;;5020148;28;20442;-55
2022/06/14 05:57:58;;;;;;;17.47;8.27;;;16.60;99.90;;;;;;5036132;28;20513;-55
2022/06/14 06:00:32;;;;;;;13.83;8.30;;;16.70;99.90;;;;;;5036540;28;20466;-55
2022/06/14 06:03:09;;;;;;;14.23;8.53;;;16.80;99.90;;;;;;5035862;28;20887;-55
2022/06/14 06:05:42;;;;;;;14.57;7.37;;;16.80;99.90;;;;;;5036423;28;20517;-55
2022/06/14 06:08:13;;;;;;;8.07;7.00;;;16.90;99.90;;;;;;5036307;28;20522;-55
2022/06/14 06:10:44;;;;;;;8.33;6.47;;;16.90;99.90;;;;;;5035718;28;20466;-55
2022/06/14 06:13:17;;;;;;;12.10;7.40;;;17.00;99.90;;;;;;5034878;28;20572;-56
2022/06/14 06:15:48;;;;;;;12.23;6.47;;;17.10;99.90;;;;;;5035087;28;20437;-56
2022/06/14 06:18:25;;;;;;;18.73;6.73;;;17.20;99.90;;;;;;5034764;28;20431;-55
2022/06/14 06:21:01;;;;;;;15.10;7.30;;;17.30;99.90;;;;;;5034788;28;20441;-55
2022/06/14 06:23:32;;;;;;;7.57;6.23;;;17.40;99.90;;;;;;5034588;28;20839;-55
2022/06/14 06:25:59;;;;;;;10.83;7.80;;;17.50;99.90;;;;;;5034513;28;20452;-56
2022/06/14 06:28:29;;;;;;;11.93;7.20;;;17.60;99.90;;;;;;5034286;28;20450;-55
2022/06/14 06:31:02;;;;;;;12.30;7.50;;;17.60;99.90;;;;;;5034193;28;20525;-55
2022/06/14 06:33:35;;;;;;;12.60;6.87;;;17.60;99.90;;;;;;5034423;28;20434;-55
2022/06/14 06:36:17;;;;;;;11.53;7.30;;;17.60;99.90;;;;;;5034459;28;20458;-56
2022/06/14 06:38:54;;;;;;;7.23;6.30;;;17.60;99.90;;;;;;5034529;28;20521;-55
2022/06/14 06:44:17;;;;;;;10.47;6.57;;;17.60;99.90;;;;;;5034229;28;20517;-56
2022/06/14 06:46:48;;;;;;;16.70;8.00;;;17.70;99.90;;;;;;5034239;28;20601;-56
2022/06/14 06:49:19;;;;;;;9.53;6.67;;;17.80;99.90;;;;;;5033835;28;20541;-56
2022/06/14 06:51:52;;;;;;;8.33;7.17;;;17.90;99.90;;;;;;5034027;28;20434;-56
2022/06/14 06:54:23;;;;;;;9.73;6.70;;;18.00;99.90;;;;;;5033908;28;20836;-56
2022/06/14 06:56:54;;;;;;;9.57;7.60;;;18.20;99.90;;;;;;5034061;28;20442;-56
2022/06/14 06:59:28;;;;;;;14.67;7.00;;;18.60;99.90;;;;;;5034274;28;20881;-56
2022/06/14 07:01:59;;;;;;;9.43;6.73;;;19.10;99.90;;;;;;5034141;28;20426;-57
2022/06/14 07:07:21;;;;;;;11.03;6.57;;;20.50;99.90;;;;;;5016242;28;20522;-57
2022/06/14 07:09:53;;;;;;;9.57;6.87;;;21.30;99.90;;;;;;5034272;28;20492;-57
2022/06/14 07:12:27;;;;;;;13.60;6.80;;;21.60;99.70;;;;;;4882393;28;4354574;-57
2022/06/14 07:15:00;;;;;;;9.83;5.80;;;21.70;98.90;;;;;;5034811;28;20517;-57
2022/06/14 07:17:32;;;;;;;10.73;7.50;;;22.30;98.80;;;;;;5035175;28;20530;-55
2022/06/14 07:20:06;;;;;;;10.03;6.57;;;22.20;97.50;;;;;;5034642;28;21072;-55
2022/06/14 07:22:44;;;;;;;10.17;5.73;;;22.30;96.90;;;;;;5034969;28;20440;-55
2022/06/14 07:25:17;;;;;;;13.87;6.67;;;22.70;96.80;;;;;;5034234;28;20521;-56
2022/06/14 07:27:48;;;;;;;10.10;6.70;;;23.10;96.20;;;;;;5034510;28;20470;-56
2022/06/14 07:30:21;;;;;;;7.13;6.03;;;23.10;95.40;;;;;;5034157;28;20997;-56
2022/06/14 07:32:52;;;;;;;10.43;7.93;;;23.20;94.30;;;;;;5034451;28;20441;-56
2022/06/14 07:35:26;;;;;;;11.90;6.90;;;23.50;93.90;;;;;;5034633;28;20634;-56
2022/06/14 07:38:03;;;;;;;7.63;6.30;;;22.90;94.40;;;;;;5034517;28;20484;-57
2022/06/14 07:40:34;;;;;;;12.17;6.30;;;23.50;93.80;;;;;;5034461;28;20465;-57
2022/06/14 07:43:11;;;;;;;7.37;5.23;;;24.10;93.70;;;;;;5034316;28;20478;-57
2022/06/14 07:45:41;;;;;;;16.73;5.90;;;24.70;92.90;;;;;;5034654;28;20438;-55
2022/06/14 07:48:13;;;;;;;9.53;5.90;;;24.70;93.20;;;;;;5033935;28;20554;-56
2022/06/14 07:50:46;;;;;;;12.10;5.60;;;24.70;92.40;;;;;;5034137;28;20462;-56
2022/06/14 07:53:18;;;;;;;9.00;4.87;;;24.70;93.10;;;;;;5034416;28;20827;-55
2022/06/14 07:55:49;;;;;;;9.93;6.93;;;25.20;91.20;;;;;;5034109;28;20514;-56
2022/06/14 07:58:22;;;;;;;8.30;5.87;;;25.20;90.50;;;;;;5034200;28;20580;-56
2022/06/14 08:01:10;;;;;;;9.03;6.17;;;25.50;90.50;;;;;;5033986;28;20545;-56
2022/06/14 08:03:44;;;;;;;11.30;6.10;;;25.30;89.80;;;;;;5033715;28;20458;-57
2022/06/14 08:06:17;;;;;;;8.57;5.60;;;25.50;89.10;;;;;;5034011;28;20518;-56
2022/06/14 08:08:46;;;;;;;6.63;5.93;;;26.00;89.10;;;;;;5033691;28;20493;-56
2022/06/14 08:11:23;;;;;;;7.60;6.07;;;26.20;85.40;;;;;;5033531;28;20482;-56
2022/06/14 08:13:55;;;;;;;5.27;4.63;;;26.50;88.00;;;;;;5033006;28;21047;-56
2022/06/14 08:16:25;;;;;;;5.87;4.60;;;27.00;83.50;;;;;;5034042;28;20477;-56
2022/06/14 08:18:56;;;;;;;5.70;4.77;;;27.20;81.40;;;;;;5033437;28;20451;-57
2022/06/14 08:21:30;;;;;;;5.03;4.53;;;27.30;77.90;;;;;;5033846;28;20517;-56
2022/06/14 08:24:00;;;;;;;10.67;5.57;;;27.30;80.90;;;;;;5033509;28;20525;-56
2022/06/14 08:26:32;;;;;;;5.67;5.07;;;28.00;79.00;;;;;;5021544;28;20453;-57
2022/06/14 08:29:05;;;;;;;8.60;5.43;;;27.50;74.80;;;;;;5013595;28;20872;-57
2022/06/14 08:31:37;;;;;;;8.40;4.30;;;27.00;75.10;;;;;;5013701;28;20432;-57
2022/06/14 08:34:12;;;;;;;6.33;4.97;;;27.90;74.60;;;;;;5013715;28;20462;-57
2022/06/14 08:36:47;;;;;;;6.90;4.60;;;27.90;71.70;;;;;;5013517;28;20930;-57
2022/06/14 08:39:18;;;;;;;8.47;5.20;;;28.20;72.60;;;;;;5013993;28;20474;-57
2022/06/14 08:42:12;;;;;;;12.20;6.30;;;28.40;68.40;;;;;;5013428;28;20906;-57
2022/06/14 08:44:45;;;;;;;11.33;4.93;;;28.50;73.20;;;;;;5006612;28;20490;-57
2022/06/14 08:47:41;;;;;;;8.40;4.77;;;28.20;71.00;;;;;;5013597;28;20471;-56
2022/06/14 08:50:45;;;;;;;6.50;4.47;;;28.00;67.40;;;;;;5009612;28;20498;-56
2022/06/14 08:53:58;;;;;;;8.67;4.43;;;28.20;68.60;;;;;;5003417;28;20549;-56
2022/06/14 08:56:41;;;;;;;7.40;5.10;;;28.20;67.30;;;;;;5024678;28;20454;-57
2022/06/14 08:59:29;;;;;;;7.00;5.07;;;;;;;;;;5033347;28;20461;-57
2022/06/14 09:02:18;;;;;;;5.80;3.97;;;29.30;66.60;;;;;;5008175;28;20956;-57
2022/06/14 09:05:09;;;;;;;9.23;5.10;;;29.50;63.20;;;;;;5033544;28;20414;-57
2022/06/14 09:08:15;;;;;;;8.37;4.37;;;29.50;65.70;;;;;;5032910;28;20463;-57
2022/06/14 09:10:57;;;;;;;5.40;4.20;;;28.70;62.90;;;;;;5033201;28;20462;-57
2022/06/14 09:13:54;;;;;;;6.87;4.90;;;29.00;63.40;;;;;;5031893;28;20972;-57
2022/06/14 09:16:45;;;;;;;7.40;4.57;;;28.50;62.80;;;;;;5033418;28;20469;-57
2022/06/14 09:19:28;;;;;;;6.23;5.00;;;28.10;62.10;;;;;;5032749;28;20470;-57
2022/06/14 09:22:07;;;;;;;3.97;3.67;;;29.00;63.70;;;;;;5032781;28;20438;-57
2022/06/14 09:24:56;;;;;;;6.73;4.50;;;29.00;60.80;;;;;;5032802;28;20900;-57
2022/06/14 09:27:54;;;;;;;5.87;4.80;;;29.20;62.40;;;;;;5032812;28;20557;-57
2022/06/14 09:30:45;;;;;;;5.80;4.50;;;29.70;62.00;;;;;;5032934;28;20450;-57
2022/06/14 09:33:38;;;;;;;8.17;4.80;;;29.50;62.10;;;;;;5020242;28;20453;-57
2022/06/14 09:36:27;;;;;;;10.53;4.47;;;29.50;60.40;;;;;;5032661;28;20747;-57
2022/06/14 09:39:39;;;;;;;7.90;4.83;;;29.90;59.60;;;;;;5033077;28;20980;-57
2022/06/14 09:42:49;;;;;;;7.63;4.67;;;30.20;59.70;;;;;;5032965;28;20445;-57
2022/06/14 09:45:45;;;;;;;9.30;4.70;;;30.30;59.00;;;;;;5032618;28;20521;-57
2022/06/14 09:48:51;;;;;;;12.73;4.47;;;30.20;58.30;;;;;;5033082;28;20549;-58
2022/06/14 09:52:03;;;;;;;4.33;3.93;;;30.00;60.10;;;;;;5032910;28;20514;-57
2022/06/14 09:55:07;;;;;;;5.30;3.60;;;29.90;58.20;;;;;;5032747;28;20446;-58
2022/06/14 09:58:03;;;;;;;7.27;3.70;;;30.10;62.50;;;;;;5001885;28;20479;-58
2022/06/14 10:00:44;;;;;;;10.23;4.00;;;30.00;58.80;;;;;;5000048;28;20482;-57
2022/06/14 10:03:41;;;;;;;6.30;4.70;;;29.30;57.80;;;;;;5015721;28;20427;-57
2022/06/14 10:06:48;;;;;;;8.00;4.77;;;30.20;59.10;;;;;;5016830;28;20530;-57
2022/06/14 10:09:29;;;;;;;5.20;3.87;;;31.00;57.90;;;;;;5014142;28;20988;-58
2022/06/14 10:12:14;;;;;;;7.77;4.23;;;30.20;56.40;;;;;;5016566;28;20435;-58
2022/06/14 10:14:47;;;;;;;5.20;4.30;;;;;;;;;;5015991;28;20778;-58
2022/06/14 10:17:45;;;;;;;4.10;3.70;;;30.50;56.50;;;;;;5016748;28;20431;-58
2022/06/14 10:20:36;;;;;;;7.33;4.23;;;30.30;67.10;;;;;;5016157;28;20499;-57
2022/06/14 10:23:18;;;;;;;8.93;4.00;;;30.30;62.80;;;;;;5016147;28;20428;-57
2022/06/14 10:28:45;;;;;;;4.67;4.20;;;30.90;90.40;;;;;;5035184;28;20544;-58
2022/06/14 10:31:21;;;;;;;4.83;4.30;;;30.80;64.90;;;;;;5035609;28;20510;-56
2022/06/14 10:33:54;;;;;;;7.63;4.23;;;30.50;60.20;;;;;;5035894;28;20484;-58
2022/06/14 10:36:48;;;;;;;5.43;4.57;;;30.70;62.10;;;;;;5035798;28;20484;-58
2022/06/14 10:39:59;;;;;;;5.20;3.70;;;29.40;57.50;;;;;;5035598;28;20474;-57
2022/06/14 10:42:35;;;;;;;6.07;4.30;;;30.40;55.20;;;;;;5035605;28;20525;-58
2022/06/14 10:45:08;;;;;;;4.80;3.87;;;30.60;55.10;;;;;;5035244;28;20426;-58
2022/06/14 10:47:59;;;;;;;4.93;4.40;;;29.90;60.70;;;;;;5035596;28;20556;-58
2022/06/14 10:50:56;;;;;;;7.63;4.50;;;30.30;59.10;;;;;;5035614;28;20493;-56
2022/06/14 10:53:39;;;;;;;4.60;3.97;;;29.10;54.70;;;;;;5035128;28;20968;-57
2022/06/14 10:56:33;;;;;;;6.30;4.27;;;30.40;55.50;;;;;;5035137;28;20521;-57
2022/06/14 10:59:26;;;;;;;6.03;3.87;;;30.40;55.50;;;;;;5007243;28;20478;-57
2022/06/14 11:02:00;;;;;;;5.37;4.07;;;30.60;55.40;;;;;;5035419;28;20625;-57
2022/06/14 11:04:34;;;;;;;6.27;4.13;;;30.90;55.00;;;;;;5035285;28;20426;-57
2022/06/14 11:07:24;;;;;;;7.77;4.00;;;30.10;52.60;;;;;;5034838;28;20977;-57
2022/06/14 11:10:25;;;;;;;4.17;3.73;;;29.50;53.80;;;;;;5035584;28;20516;-57
2022/06/14 11:13:05;;;;;;;5.87;4.10;;;30.10;53.60;;;;;;5034459;28;20820;-57
2022/06/14 11:15:40;;;;;;;3.93;3.40;;;30.70;54.60;;;;;;5034166;28;20430;-56
2022/06/14 11:18:40;;;;;;;6.43;3.67;;;30.70;54.10;;;;;;5034907;28;20505;-56
2022/06/14 11:21:23;;;;;;;6.30;3.87;;;31.40;54.40;;;;;;5034380;28;21007;-56
2022/06/14 11:24:00;;;;;;;6.83;4.50;;;31.30;53.70;;;;;;5034460;28;20433;-56
2022/06/14 11:26:34;;;;;;;6.93;4.80;;;30.70;53.50;;;;;;5035043;28;20438;-56
2022/06/14 11:29:08;;;;;;;5.03;4.30;;;30.10;53.20;;;;;;5034402;28;20481;-56
2022/06/14 11:31:43;;;;;;;7.20;3.87;;;29.60;53.00;;;;;;5034732;28;20449;-56
2022/06/14 11:34:36;;;;;;;4.67;3.40;;;30.10;54.20;;;;;;5034606;28;20774;-56
2022/06/14 11:37:26;;;;;;;11.60;5.33;;;30.60;53.40;;;;;;5034948;28;20545;-56
2022/06/14 11:39:59;;;;;;;5.87;3.73;;;31.10;54.10;;;;;;5034525;28;20543;-57
2022/06/14 11:42:31;;;;;;;7.10;4.47;;;31.20;53.80;;;;;;5034530;28;20505;-57
2022/06/14 11:45:15;;;;;;;6.43;4.07;;;30.80;52.80;;;;;;5034095;28;20521;-57
2022/06/14 11:47:50;;;;;;;5.07;3.67;;;30.50;53.50;;;;;;5033850;28;20431;-57
2022/06/14 11:50:26;;;;;;;4.77;3.90;;;30.80;54.20;;;;;;5034638;28;20549;-57
2022/06/14 11:53:11;;;;;;;4.47;3.80;;;30.70;52.10;;;;;;5034095;28;20853;-57
2022/06/14 11:55:46;;;;;;;4.33;3.73;;;30.90;51.90;;;;;;5033821;28;20521;-57
2022/06/14 11:58:21;;;;;;;5.13;3.43;;;31.00;51.60;;;;;;5033947;28;20426;-57
2022/06/14 12:01:12;;;;;;;5.90;3.37;;;31.10;51.40;;;;;;5034278;28;20562;-57
2022/06/14 12:04:15;;;;;;;4.20;3.80;;;30.30;50.60;;;;;;5034068;28;20831;-57
2022/06/14 12:06:52;;;;;;;7.97;3.90;;;30.50;51.20;;;;;;5034069;28;20429;-57
2022/06/14 12:09:51;;;;;;;5.80;4.90;;;30.60;51.60;;;;;;5034151;28;20898;-57
2022/06/14 12:12:27;;;;;;;6.20;3.97;;;30.60;51.70;;;;;;5033871;28;20437;-57
2022/06/14 12:15:01;;;;;;;7.30;4.37;;;31.10;51.60;;;;;;5033882;28;20517;-57
2022/06/14 12:17:31;;;;;;;6.90;3.90;;;29.80;51.50;;;;;;5033864;28;20431;-57
2022/06/14 12:20:06;;;;;;;4.97;3.67;;;30.20;53.00;;;;;;5033647;28;20481;-57
2022/06/14 12:22:43;;;;;;;6.67;3.87;;;30.10;52.30;;;;;;5033610;28;20446;-57
2022/06/14 12:28:08;;;;;;;4.50;3.30;;;30.30;51.40;;;;;;5033201;28;20691;-57
2022/06/14 12:30:37;;;;;;;5.90;3.50;;;30.10;50.90;;;;;;5033401;28;20466;-57
2022/06/14 12:33:11;;;;;;;5.07;3.80;;;29.80;52.10;;;;;;5033232;28;20809;-57
2022/06/14 12:35:54;;;;;;;4.90;3.60;;;30.30;51.20;;;;;;5033637;28;20481;-57
2022/06/14 12:38:28;;;;;;;8.23;3.10;;;29.60;50.00;;;;;;5033477;28;20504;-57
2022/06/14 12:41:05;;;;;;;5.03;3.77;;;30.30;52.30;;;;;;5033545;28;20431;-57
2022/06/14 12:43:48;;;;;;;5.60;4.00;;;29.60;50.80;;;;;;5032978;28;20470;-57
2022/06/14 12:46:21;;;;;;;9.53;3.90;;;29.80;50.90;;;;;;5033036;28;20438;-57
2022/06/14 12:48:58;;;;;;;4.80;3.17;;;30.40;50.40;;;;;;5033250;28;20991;-57
2022/06/14 12:51:30;;;;;;;7.77;3.37;;;29.90;50.50;;;;;;5033154;28;20430;-57
2022/06/14 12:54:08;;;;;;;4.30;3.20;;;29.50;50.30;;;;;;5033297;28;20519;-57
2022/06/14 12:56:43;;;;;;;5.13;3.77;;;29.90;50.30;;;;;;5033058;28;20863;-57
2022/06/14 12:59:20;;;;;;;3.70;3.10;;;29.40;50.60;;;;;;5033103;28;20488;-56
2022/06/14 13:01:54;;;;;;;5.70;3.73;;;29.90;51.30;;;;;;5033223;28;20430;-57
2022/06/14 13:04:25;;;;;;;5.73;4.10;;;29.90;52.60;;;;;;5033329;28;20500;-56
2022/06/14 13:07:25;;;;;;;5.50;4.10;;;30.20;51.70;;;;;;5032956;28;20439;-56
2022/06/14 13:10:05;;;;;;;4.23;3.83;;;30.40;51.20;;;;;;5031060;28;20565;-57
2022/06/14 13:12:40;;;;;;;4.73;4.33;;;30.80;51.70;;;;;;5032907;28;20951;-57
2022/06/14 13:15:15;;;;;;;4.90;3.50;;;30.30;50.50;;;;;;5032891;28;20509;-57
2022/06/14 13:18:12;;;;;;;5.93;3.27;;;30.00;51.30;;;;;;5033404;28;20437;-57
2022/06/14 13:20:47;;;;;;;6.03;4.03;;;29.70;50.20;;;;;;5031973;28;21062;-57
2022/06/14 13:23:28;;;;;;;5.50;3.80;;;29.50;51.00;;;;;;5033027;28;20536;-57
2022/06/14 13:26:25;;;;;;;8.20;3.77;;;29.10;51.20;;;;;;5032716;28;20445;-56
2022/06/14 13:29:12;;;;;;;4.87;3.50;;;29.00;50.80;;;;;;5031223;28;20517;-57
2022/06/14 13:31:54;;;;;;;3.70;3.27;;;29.00;51.20;;;;;;5032419;28;20509;-57
2022/06/14 13:34:32;;;;;;;6.53;4.03;;;28.30;51.60;;;;;;5032709;28;20822;-57
2022/06/14 13:37:16;;;;;;;7.67;3.93;;;28.00;51.70;;;;;;5033559;28;20796;-57
2022/06/14 13:39:50;;;;;;;6.57;3.97;;;28.30;52.50;;;;;;5036123;28;20572;-57
2022/06/14 13:42:24;;;;;;;4.30;3.60;;;28.70;52.50;;;;;;5036484;28;20792;-57
2022/06/14 13:44:57;;;;;;;4.27;3.57;;;28.60;52.10;;;;;;5036197;28;20509;-57
2022/06/14 13:47:33;;;;;;;6.00;3.80;;;28.50;51.40;;;;;;5036688;28;20489;-58
2022/06/14 13:50:06;;;;;;;4.50;3.43;;;28.70;52.80;;;;;;5036384;28;21000;-57
2022/06/14 13:52:39;;;;;;;8.20;4.60;;;28.50;51.40;;;;;;5036488;28;20419;-57
2022/06/14 13:55:15;;;;;;;5.27;3.80;;;28.00;51.60;;;;;;5035941;28;20431;-57
2022/06/14 13:57:49;;;;;;;7.90;4.03;;;27.70;51.30;;;;;;5036472;28;20434;-57